Stations météo

réclame
Mon MeteoGroup
Valencia, Espagne (8285): Température de l'air & dewpoint: 17.05.2018 22:00:00 - 23.05.2018 22:00:00 (CEST)Valencia, Espagne (8285): Vitesse du vent & gusts: 17.05.2018 22:00:00 - 23.05.2018 22:00:00 (CEST)Valencia, Espagne (8285): Direction du vent: 17.05.2018 22:00:00 - 23.05.2018 22:00:00 (CEST)Valencia, Espagne (8285): Quantités de précipitations: 17.05.2018 22:00:00 - 23.05.2018 22:00:00 (CEST)
Date & Time tt [°C] td [°C] ff [km/h] ff [knt] fx [km/h] fx [knt] dd rr [mm]
23.05.2018 22:00:00 20,6 13,8 5 3 23 12 NNE 0,0
23.05.2018 21:00:00 20,8 13,3 7 4 16 9 N 0,0
23.05.2018 20:00:00 21,5 13,7 3 2 16 9 NNE -
23.05.2018 19:00:00 21,9 13,6 4 2 21 12 NNE 0,0
23.05.2018 18:00:00 - - 6 3 23 12 ESE 0,0
23.05.2018 17:00:00 - - 7 4 22 12 ESE 0,0
23.05.2018 16:00:00 - - 10 6 22 12 ESE 0,0
23.05.2018 15:00:00 - - 6 3 18 10 E 0,0
23.05.2018 14:00:00 - - 8 4 19 11 ESE -
23.05.2018 13:00:00 22,4 15,0 10 5 21 11 ESE 0,0
23.05.2018 12:00:00 22,1 15,0 7 4 19 10 E 0,0
23.05.2018 11:00:00 22,3 15,6 4 2 16 8 ENE 0,0
23.05.2018 10:00:00 21,1 16,3 4 2 13 7 N 0,0
23.05.2018 09:00:00 19,7 16,6 5 3 15 8 N 0,0
23.05.2018 08:00:00 18,7 16,1 6 3 13 7 N -
23.05.2018 07:00:00 18,0 15,1 5 3 10 6 N 0,0
23.05.2018 06:00:00 18,0 14,7 4 2 9 5 N 0,0
23.05.2018 05:00:00 18,3 15,7 5 3 12 7 N 0,0
23.05.2018 04:00:00 18,8 16,0 1 1 5 3 SSE 0,0
23.05.2018 03:00:00 19,7 15,5 1 0 8 5 SSE 0,0
23.05.2018 02:00:00 19,1 13,5 0 0 5 3 NE -
23.05.2018 01:00:00 19,0 13,2 4 2 7 4 N 0,0
23.05.2018 00:00:00 19,5 12,5 1 0 3 2 NNE 0,0
22.05.2018 23:00:00 20,3 12,3 3 2 8 4 N 0,0
22.05.2018 22:00:00 20,7 13,2 2 1 5 3 N 0,0
22.05.2018 21:00:00 21,4 12,0 3 2 8 4 S 0,0
22.05.2018 20:00:00 21,3 12,4 3 1 12 6 S -
22.05.2018 19:00:00 21,1 13,8 2 1 14 8 E 0,0
22.05.2018 18:00:00 - - 6 4 17 9 E 0,0
22.05.2018 17:00:00 21,7 13,1 3 1 20 11 E 0,0
22.05.2018 16:00:00 22,3 12,8 3 2 27 14 E 0,0
22.05.2018 15:00:00 24,2 12,5 6 3 25 14 E 0,0
22.05.2018 14:00:00 25,8 11,2 4 2 19 10 ENE -
22.05.2018 13:00:00 25,7 11,1 1 1 16 9 ENE 0,0
22.05.2018 12:00:00 23,6 11,0 4 2 13 7 SE 0,0
22.05.2018 11:00:00 23,7 11,3 4 2 9 5 NE 0,0
22.05.2018 10:00:00 19,9 11,3 1 1 8 4 NNE 0,0
22.05.2018 09:00:00 17,6 11,9 0 0 5 3 NE 0,0
22.05.2018 08:00:00 16,2 12,0 1 1 6 4 NW -
22.05.2018 07:00:00 15,5 11,3 0 0 4 2 WSW 0,0
22.05.2018 06:00:00 15,9 11,7 1 1 6 3 S 0,0
22.05.2018 05:00:00 16,5 12,4 3 2 8 4 NW 0,0
22.05.2018 04:00:00 17,2 13,2 4 2 9 5 WSW 0,0
22.05.2018 03:00:00 17,5 13,7 2 1 6 3 SW 0,0
22.05.2018 02:00:00 17,9 14,2 2 1 8 4 WSW -
22.05.2018 01:00:00 17,9 13,4 3 1 5 3 SW 0,0
22.05.2018 00:00:00 18,8 13,7 0 0 8 4 ESE 0,0
21.05.2018 23:00:00 19,3 12,5 2 1 6 3 NNE 0,0
21.05.2018 22:00:00 19,6 12,8 2 1 10 5 SSE 0,0
21.05.2018 21:00:00 20,0 13,0 3 2 12 7 SE 0,0
21.05.2018 20:00:00 20,5 13,0 4 2 12 7 ESE -
21.05.2018 19:00:00 20,2 12,6 5 3 18 10 SE 0,0
21.05.2018 18:00:00 20,6 13,3 5 3 23 13 ESE 0,0
21.05.2018 17:00:00 20,7 12,4 10 5 29 15 ESE 0,0
21.05.2018 16:00:00 21,5 12,3 12 7 25 14 ESE 0,0
21.05.2018 15:00:00 22,1 11,2 11 6 24 13 SE 0,0
21.05.2018 14:00:00 22,4 10,2 9 5 23 12 ESE -
21.05.2018 13:00:00 22,9 9,7 10 5 22 12 ESE 0,0
21.05.2018 12:00:00 22,7 10,2 10 5 16 9 ESE 0,0
21.05.2018 11:00:00 22,5 11,6 3 2 12 6 ESE 0,0
21.05.2018 10:00:00 19,4 11,4 2 1 8 5 E 0,0
21.05.2018 09:00:00 17,4 11,4 1 1 6 4 NW 0,0
21.05.2018 08:00:00 16,1 11,2 4 2 7 4 W -
21.05.2018 07:00:00 15,7 11,1 3 1 8 5 WSW 0,0
21.05.2018 06:00:00 16,2 12,0 4 2 7 4 SW 0,0
21.05.2018 05:00:00 16,4 12,3 3 2 8 4 W 0,0
21.05.2018 04:00:00 16,9 13,1 2 1 8 5 WSW 0,0
21.05.2018 03:00:00 17,4 13,9 4 2 9 5 W 0,0
21.05.2018 02:00:00 17,7 14,2 5 3 9 5 NNW -
21.05.2018 01:00:00 18,1 14,4 4 2 8 4 N 0,0
21.05.2018 00:00:00 18,7 14,6 0 0 7 4 N 0,0
20.05.2018 23:00:00 19,1 14,3 1 0 8 4 NNE 0,0
20.05.2018 22:00:00 19,7 13,9 4 2 14 7 ESE 0,0
20.05.2018 21:00:00 19,9 13,6 4 2 14 7 ESE 0,0
20.05.2018 20:00:00 20,8 12,2 4 2 15 8 ESE -
20.05.2018 19:00:00 21,1 12,0 4 2 22 12 E 0,0
20.05.2018 18:00:00 21,4 12,2 10 5 24 13 ESE 0,0
20.05.2018 17:00:00 22,2 11,9 8 4 22 12 ESE 0,0
20.05.2018 16:00:00 22,6 11,0 9 5 22 12 ESE 0,0
20.05.2018 15:00:00 23,6 11,0 5 3 23 12 SE 0,0
20.05.2018 14:00:00 22,4 9,6 11 6 19 11 SE -
20.05.2018 13:00:00 23,4 10,0 3 1 18 10 E 0,0
20.05.2018 12:00:00 22,9 8,5 8 4 16 9 ESE 0,0
20.05.2018 11:00:00 22,4 10,2 3 1 12 6 NE 0,0
20.05.2018 10:00:00 18,6 10,4 1 0 9 5 W 0,0
20.05.2018 09:00:00 16,6 10,9 2 1 8 4 WSW 0,0
20.05.2018 08:00:00 15,1 10,9 4 2 7 4 WSW -
20.05.2018 07:00:00 14,7 10,9 2 1 8 5 WSW 0,0
20.05.2018 06:00:00 15,0 11,3 2 1 5 3 W 0,0
20.05.2018 05:00:00 15,4 12,0 0 0 5 3 W 0,0
20.05.2018 04:00:00 15,8 12,5 0 0 6 3 N 0,0
20.05.2018 03:00:00 16,3 12,8 2 1 5 3 N 0,0
20.05.2018 02:00:00 16,9 12,6 0 0 5 3 NNW -
20.05.2018 01:00:00 17,6 12,5 0 0 6 3 NNE 0,0
20.05.2018 00:00:00 18,4 12,1 2 1 6 4 NNE 0,0
19.05.2018 23:00:00 17,9 10,5 0 0 7 4 NNW 0,0
19.05.2018 22:00:00 19,3 11,1 4 2 13 7 SSE 0,0
19.05.2018 21:00:00 19,8 10,8 3 2 13 7 SE 0,0
19.05.2018 20:00:00 20,4 9,9 6 3 15 8 ESE -
19.05.2018 19:00:00 20,7 9,6 9 5 18 10 ESE 0,0
19.05.2018 18:00:00 21,7 9,9 5 3 23 12 ESE 0,0
19.05.2018 17:00:00 22,1 9,6 9 5 23 13 ESE 0,0
19.05.2018 16:00:00 22,9 9,7 8 4 25 13 SE 0,0
19.05.2018 15:00:00 22,5 9,3 10 6 23 13 SSE 0,0
19.05.2018 14:00:00 23,3 9,3 10 5 22 12 E -
19.05.2018 13:00:00 22,4 8,5 8 4 21 11 ESE 0,0
19.05.2018 12:00:00 23,2 9,2 4 2 14 8 ESE 0,0
19.05.2018 11:00:00 21,4 8,9 6 3 12 7 SE 0,0
19.05.2018 10:00:00 19,3 9,4 2 1 8 4 SE 0,0
19.05.2018 09:00:00 16,7 9,8 2 1 7 4 WSW 0,0
19.05.2018 08:00:00 15,0 10,0 2 1 10 5 WNW -
19.05.2018 07:00:00 14,9 11,4 3 2 10 5 WSW 0,0
19.05.2018 06:00:00 15,2 12,3 6 4 11 6 W 0,0
19.05.2018 05:00:00 15,5 12,8 2 1 6 3 N 0,0
19.05.2018 04:00:00 16,0 13,5 3 2 8 5 N 0,0
19.05.2018 03:00:00 16,8 13,9 2 1 6 3 N 0,0
19.05.2018 02:00:00 17,4 13,9 0 0 5 3 S -
19.05.2018 01:00:00 17,8 14,1 0 0 6 3 SSE 0,0
19.05.2018 00:00:00 18,0 14,3 0 0 6 3 ESE 0,0
18.05.2018 23:00:00 18,3 13,9 0 0 9 5 ENE 0,0
18.05.2018 22:00:00 18,6 13,5 3 1 10 5 N 0,0
18.05.2018 21:00:00 19,2 12,4 0 0 12 6 N 0,0
18.05.2018 20:00:00 19,9 11,9 6 3 17 9 ESE -
18.05.2018 19:00:00 20,9 12,5 4 2 18 10 E 0,0
18.05.2018 18:00:00 20,9 12,1 4 2 23 12 ESE 0,0
18.05.2018 17:00:00 21,0 10,8 8 4 22 12 E 0,0
18.05.2018 16:00:00 22,7 10,8 4 2 24 13 E 0,0
18.05.2018 15:00:00 22,7 10,8 4 2 25 14 E 0,0
18.05.2018 14:00:00 22,4 8,9 8 5 24 13 ESE -
18.05.2018 13:00:00 22,8 7,7 10 6 20 11 ESE 0,0
18.05.2018 12:00:00 22,8 7,0 4 2 13 7 E 0,0
18.05.2018 11:00:00 21,5 8,8 8 4 15 8 ESE 0,0
18.05.2018 10:00:00 18,6 9,0 2 1 11 6 NNW 0,0
18.05.2018 09:00:00 16,8 9,9 3 1 9 5 W 0,0
18.05.2018 08:00:00 15,1 11,1 3 2 6 3 W -
18.05.2018 07:00:00 15,2 11,0 1 0 13 7 W 0,0
18.05.2018 06:00:00 15,3 11,3 5 3 10 5 W 0,0
18.05.2018 05:00:00 15,8 11,8 3 1 9 5 W 0,0
18.05.2018 04:00:00 16,1 12,2 2 1 8 4 WNW 0,0
18.05.2018 03:00:00 17,0 13,2 5 3 9 5 N 0,0
18.05.2018 02:00:00 17,2 13,9 1 1 8 5 N -
18.05.2018 01:00:00 17,6 14,3 4 2 8 4 NNE 0,0
18.05.2018 00:00:00 17,8 13,8 4 2 10 5 NNE 0,0
17.05.2018 23:00:00 18,2 12,4 4 2 9 5 SSE 0,0
17.05.2018 22:00:00 18,5 11,6 5 3 11 6 ESE 0,0

tt = Température de l'air
td = dewpoint
ff = Vitesse du vent
fx = gusts
dd = Direction du vent
rr = Quantités de précipitations

stations d'obs. à proximité